Hereford, TX

6:00 PM CDT on March 27, 2017 (GMT -0500)
Hereford Municipal

Weather History for KHRX - February, 2013

Change the Weather History Date:

Sunday, February 10, 2013

  Actual Average (KAMA) Record (KAMA)
Temperature  
Mean Temperature 42 °F -  
Max Temperature 55 °F 51 °F 89 °F (2017)
Min Temperature 28 °F 26 °F -6 °F (2011)
Degree Days  
Heating Degree Days 24    
Moisture  
Dew Point 10 °F    
Average Humidity 32    
Maximum Humidity 48    
Minimum Humidity 12    
Precipitation  
Precipitation 0.00 in - - ()
Sea Level Pressure  
Sea Level Pressure 29.82 in    
Wind  
Wind Speed - (North)    
Max Wind Speed -    
Max Gust Speed -    
Visibility 10 miles    
Events      
Averages and records for this station are not official NWS values.
T = Trace of Precipitation, MM = Missing Value Source: NWS Daily Summary

Daily Weather History Graph

Daily Weather History Graph

Search for Another Location

Airport or City:

Trip Planner

Search our weather history database for the weather conditions in past years. The results will help you decide how hot, cold, wet, or windy it might be!

Date:

Astronomy

Feb. 10, 2013 Rise Set
Actual Time 7:39 AM CST 6:27 PM CST
Civil Twilight 7:13 AM CST 6:53 PM CST
Nautical Twilight 6:44 AM CST 7:23 PM CST
Astronomical Twilight 6:14 AM CST 7:53 PM CST
Moon 7:34 AM CST (2/10) 7:16 PM CST (2/10)
Length of Visible Light 11h 39m
Length of Day
10h 47m
New Moon, 0% of the Moon is Illuminated
Feb 10
New Moon
Feb 17
First Quarter
Feb 25
Full
Mar 4
Last Quarter
Mar 11
New

Hourly Weather History & Observations

Time (CST) Temp. Dew Point Humidity Pressure Visibility Wind Dir Wind Speed Gust Speed Precip Events Conditions
12:15 AM 37.4 °F 10.4 °F 33% 29.71 in 10.0 mi North - - N/A   Clear
12:35 AM 37.4 °F 10.4 °F 33% 29.71 in 10.0 mi North - - N/A   Clear
12:55 AM 37.4 °F 10.4 °F 33% 29.71 in 10.0 mi North - - N/A   Clear
1:15 AM 37.4 °F 10.4 °F 33% 29.70 in 10.0 mi North - - N/A   Clear
1:35 AM 37.4 °F 10.4 °F 33% 29.69 in 10.0 mi North - - N/A   Clear
1:55 AM 37.4 °F 10.4 °F 33% 29.69 in 10.0 mi North - - N/A   Clear
2:15 AM 37.4 °F 12.2 °F 36% 29.69 in 10.0 mi North - - N/A   Clear
2:35 AM 35.6 °F 12.2 °F 38% 29.70 in 10.0 mi North - - N/A   Clear
2:55 AM 35.6 °F 12.2 °F 38% 29.70 in 10.0 mi North - - N/A   Clear
3:15 AM 35.6 °F 12.2 °F 38% 29.70 in 10.0 mi North - - N/A   Clear
3:35 AM 35.6 °F 12.2 °F 38% 29.70 in 10.0 mi North - - N/A   Clear
3:55 AM 35.6 °F 12.2 °F 38% 29.70 in 10.0 mi North - - N/A   Clear
4:15 AM 33.8 °F 12.2 °F 41% 29.70 in 10.0 mi North - - N/A   Clear
4:35 AM 33.8 °F 12.2 °F 41% 29.70 in 10.0 mi North - - N/A   Clear
4:55 AM 33.8 °F 12.2 °F 41% 29.70 in 10.0 mi North - - N/A   Clear
5:15 AM 32.0 °F 14.0 °F 48% 29.71 in 10.0 mi North - - N/A   Clear
5:35 AM 33.8 °F 14.0 °F 44% 29.72 in 10.0 mi North - - N/A   Clear
5:55 AM 33.8 °F 14.0 °F 44% 29.73 in 10.0 mi North - - N/A   Clear
6:15 AM 33.8 °F 14.0 °F 44% 29.73 in 10.0 mi North - - N/A   Clear
6:35 AM 33.8 °F 14.0 °F 44% 29.74 in 10.0 mi North - - N/A   Clear
6:55 AM 32.0 °F 14.0 °F 48% 29.75 in 10.0 mi North - - N/A   Clear
7:15 AM 32.0 °F 14.0 °F 48% 29.75 in 10.0 mi North - - N/A   Clear
7:35 AM 32.0 °F 14.0 °F 48% 29.76 in 10.0 mi North - - N/A   Clear
7:55 AM 32.0 °F 14.0 °F 48% 29.77 in 10.0 mi North - - N/A   Clear
8:15 AM 33.8 °F 14.0 °F 44% 29.79 in 10.0 mi North - - N/A   Clear
8:35 AM 35.6 °F 14.0 °F 41% 29.79 in 10.0 mi North - - N/A   Clear
8:55 AM 37.4 °F 14.0 °F 38% 29.80 in 10.0 mi North - - N/A   Clear
9:15 AM 41.0 °F 14.0 °F 33% 29.80 in 10.0 mi North - - N/A   Clear
9:35 AM 41.0 °F 14.0 °F 33% 29.81 in 10.0 mi North - - N/A   Clear
9:55 AM 42.8 °F 14.0 °F 31% 29.82 in 10.0 mi North - - N/A   Clear
10:15 AM 44.6 °F 14.0 °F 29% 29.82 in 10.0 mi North - - N/A   Clear
10:35 AM 46.4 °F 12.2 °F 25% 29.83 in 10.0 mi North - - N/A   Clear
10:55 AM 46.4 °F 12.2 °F 25% 29.83 in 10.0 mi North - - N/A   Clear
11:15 AM 48.2 °F 12.2 °F 24% 29.83 in 10.0 mi North - - N/A   Clear
11:35 AM 50.0 °F 10.4 °F 20% 29.84 in 10.0 mi North - - N/A   Clear
12:15 PM 51.8 °F 10.4 °F 19% 29.85 in 10.0 mi North - - N/A   Clear
12:35 PM 51.8 °F 10.4 °F 19% 29.84 in 10.0 mi North - - N/A   Clear
12:55 PM 51.8 °F 10.4 °F 19% 29.83 in 10.0 mi North - - N/A   Clear
1:15 PM 51.8 °F 8.6 °F 18% 29.83 in 10.0 mi North - - N/A   Clear
1:35 PM 53.6 °F 8.6 °F 16% 29.82 in 10.0 mi North - - N/A   Clear
1:55 PM 53.6 °F 3.2 °F 13% 29.82 in 10.0 mi North - - N/A   Clear
2:15 PM 53.6 °F 5.0 °F 14% 29.83 in 10.0 mi North - - N/A   Clear
2:35 PM 53.6 °F 5.0 °F 14% 29.82 in 10.0 mi North - - N/A   Clear
3:15 PM 55.4 °F 5.0 °F 13% 29.82 in 10.0 mi North - - N/A   Clear
3:35 PM 53.6 °F 5.0 °F 14% 29.82 in 10.0 mi North - - N/A   Clear
3:55 PM 55.4 °F 3.2 °F 12% 29.82 in 10.0 mi North - - N/A   Clear
4:15 PM 53.6 °F 3.2 °F 13% 29.83 in 10.0 mi North - - N/A   Clear
4:35 PM 53.6 °F 3.2 °F 13% 29.83 in 10.0 mi North - - N/A   Clear
4:55 PM 53.6 °F 3.2 °F 13% 29.84 in 10.0 mi North - - N/A   Clear
5:15 PM 53.6 °F 3.2 °F 13% 29.85 in 10.0 mi North - - N/A   Clear
5:35 PM 51.8 °F 5.0 °F 15% 29.86 in 10.0 mi North - - N/A   Clear
5:55 PM 51.8 °F 5.0 °F 15% 29.86 in 10.0 mi North - - N/A   Clear
6:15 PM 48.2 °F 5.0 °F 17% 29.87 in 10.0 mi North - - N/A   Clear
6:35 PM 44.6 °F 5.0 °F 20% 29.88 in 10.0 mi North - - N/A   Clear
6:55 PM 44.6 °F 5.0 °F 20% 29.89 in 10.0 mi North - - N/A   Clear
7:15 PM 41.0 °F 8.6 °F 26% 29.91 in 10.0 mi North - - N/A   Clear
7:35 PM 37.4 °F 10.4 °F 33% 29.93 in 10.0 mi North - - N/A   Clear
7:55 PM 35.6 °F 10.4 °F 35% 29.94 in 10.0 mi North - - N/A   Clear
8:15 PM 33.8 °F 10.4 °F 38% 29.95 in 10.0 mi North - - N/A   Clear
8:35 PM 33.8 °F 12.2 °F 41% 29.96 in 10.0 mi North - - N/A   Clear
8:55 PM 33.8 °F 12.2 °F 41% 29.96 in 10.0 mi North - - N/A   Clear
9:15 PM 32.0 °F 12.2 °F 44% 29.98 in 10.0 mi North - - N/A   Clear
9:35 PM 32.0 °F 12.2 °F 44% 29.98 in 10.0 mi North - - N/A   Clear
9:55 PM 33.8 °F 12.2 °F 41% 29.99 in 10.0 mi North - - N/A   Clear
10:15 PM 35.6 °F 12.2 °F 38% 29.99 in 10.0 mi North - - N/A   Clear
10:35 PM 32.0 °F 12.2 °F 44% 30.00 in 10.0 mi North - - N/A   Clear
10:55 PM 30.2 °F 12.2 °F 47% 30.00 in 10.0 mi North - - N/A   Clear
11:15 PM 28.4 °F 10.4 °F 47% 30.01 in 10.0 mi North - - N/A   Clear
11:35 PM 28.4 °F 10.4 °F 47% 30.02 in 10.0 mi North - - N/A   Clear
11:55 PM 28.4 °F 10.4 °F 47% 30.02 in 10.0 mi North - - N/A   Clear